Time;durP1;ratioP1;P1;durP2;ratioP2;P2;SDS_P1;SDS_P2;PMS_P1;PMS_P2;Temp;Humidity;BMP_temperature;BMP_pressure;BME280_temperature;BME280_humidity;BME280_pressure;Samples;Min_cycle;Max_cycle;Signal;HPM_P1;HPM_P2
2023/03/14 00:01:11;;;;;;;2.37;1.43;;;14.20;99.90;;;;;;5056373;28;20466;-75
2023/03/14 00:03:39;;;;;;;1.40;1.10;;;14.20;99.90;;;;;;5057963;28;20465;-76
2023/03/14 00:06:09;;;;;;;2.60;1.50;;;14.20;99.90;;;;;;5057539;28;20502;-75
2023/03/14 00:08:36;;;;;;;1.63;1.50;;;14.20;99.90;;;;;;5057309;28;20463;-77
2023/03/14 00:11:08;;;;;;;1.33;1.00;;;14.20;99.90;;;;;;5053956;28;20478;-77
2023/03/14 00:13:35;;;;;;;2.17;1.97;;;14.10;99.90;;;;;;5058016;28;20531;-76
2023/03/14 00:16:06;;;;;;;1.23;1.13;;;14.10;99.90;;;;;;5056966;28;20520;-75
2023/03/14 00:18:35;;;;;;;1.57;1.33;;;14.00;99.90;;;;;;5056215;28;20572;-76
2023/03/14 00:21:03;;;;;;;1.30;1.20;;;14.00;99.90;;;;;;5058122;28;21007;-77
2023/03/14 00:23:33;;;;;;;1.30;1.20;;;14.00;99.90;;;;;;5058678;28;20532;-77
2023/03/14 00:26:01;;;;;;;1.57;1.10;;;14.00;99.90;;;;;;5056615;28;20964;-78
2023/03/14 00:28:28;;;;;;;1.30;1.10;;;14.00;99.90;;;;;;5055837;28;20557;-76
2023/03/14 00:30:58;;;;;;;2.23;1.40;;;14.00;99.90;;;;;;5055958;28;20276;-78
2023/03/14 00:33:26;;;;;;;3.33;1.40;;;13.90;99.90;;;;;;5057971;28;20477;-78
2023/03/14 00:35:57;;;;;;;2.53;2.20;;;13.90;99.90;;;;;;5057510;28;20471;-77
2023/03/14 00:38:25;;;;;;;3.93;2.97;;;13.90;99.90;;;;;;5058013;28;20853;-77
2023/03/14 00:40:53;;;;;;;2.60;2.40;;;13.80;99.90;;;;;;5058701;28;20466;-77
2023/03/14 00:43:22;;;;;;;1.20;1.10;;;13.80;99.90;;;;;;5058628;28;20470;-77
2023/03/14 00:45:49;;;;;;;1.43;1.33;;;13.80;99.90;;;;;;5057237;28;20815;-77
2023/03/14 00:48:16;;;;;;;1.25;1.15;;;13.80;99.90;;;;;;5056057;28;20556;-77
2023/03/14 00:50:43;;;;;;;1.80;1.50;;;13.70;99.90;;;;;;5056978;28;20324;-77
2023/03/14 00:53:11;;;;;;;1.40;1.23;;;13.70;99.90;;;;;;5056470;28;20520;-75
2023/03/14 00:55:38;;;;;;;2.70;1.40;;;13.60;99.90;;;;;;5055073;28;20475;-77
2023/03/14 00:58:07;;;;;;;2.10;1.50;;;13.70;99.90;;;;;;5049785;28;20302;-75
2023/03/14 01:00:34;;;;;;;1.27;1.10;;;13.60;99.90;;;;;;5053149;28;20471;-77
2023/03/14 01:03:01;;;;;;;1.90;1.13;;;13.60;99.90;;;;;;5058114;28;20539;-76
2023/03/14 01:05:28;;;;;;;2.45;1.65;;;13.60;99.90;;;;;;5055150;28;20579;-75
2023/03/14 01:07:55;;;;;;;2.17;1.97;;;13.60;99.90;;;;;;5058588;28;20332;-75
2023/03/14 01:10:23;;;;;;;1.57;1.47;;;13.60;99.90;;;;;;5045916;28;21133;-76
2023/03/14 01:12:51;;;;;;;1.23;1.10;;;13.60;99.90;;;;;;5058252;28;20463;-77
2023/03/14 01:15:22;;;;;;;1.57;1.47;;;13.60;99.90;;;;;;5045212;28;20482;-75
2023/03/14 01:17:49;;;;;;;1.50;1.40;;;13.60;99.90;;;;;;5075709;28;20470;-75
2023/03/14 01:20:17;;;;;;;1.87;1.60;;;13.50;99.90;;;;;;5057025;28;20471;-77
2023/03/14 01:22:45;;;;;;;1.13;1.03;;;13.50;99.90;;;;;;5058939;28;20544;-77
2023/03/14 01:25:17;;;;;;;1.20;1.10;;;13.50;99.90;;;;;;5058779;28;20557;-77
2023/03/14 01:27:44;;;;;;;2.00;1.13;;;13.40;99.90;;;;;;5059526;28;20248;-78
2023/03/14 01:30:13;;;;;;;2.63;1.73;;;13.40;99.90;;;;;;5058665;28;20479;-77
2023/03/14 01:32:42;;;;;;;3.65;3.03;;;13.40;99.90;;;;;;5060380;28;20224;-77
2023/03/14 01:35:09;;;;;;;2.47;2.25;;;13.30;99.90;;;;;;5056999;28;20273;-75
2023/03/14 01:37:36;;;;;;;1.50;1.40;;;13.30;99.90;;;;;;5059133;28;20239;-75
2023/03/14 01:40:05;;;;;;;1.38;1.27;;;13.30;99.90;;;;;;5060802;28;20220;-77
2023/03/14 01:42:32;;;;;;;1.30;1.20;;;13.30;99.90;;;;;;5061330;28;20309;-75
2023/03/14 01:45:01;;;;;;;8.32;6.30;;;13.30;99.90;;;;;;5060273;28;20220;-77
2023/03/14 01:47:28;;;;;;;5.63;2.10;;;13.30;99.90;;;;;;5059854;28;20259;-77
2023/03/14 01:50:04;;;;;;;1.60;1.35;;;13.30;99.90;;;;;;5059042;28;20274;-74
2023/03/14 01:52:35;;;;;;;5.33;1.70;;;13.30;99.90;;;;;;5060005;28;20228;-74
2023/03/14 01:55:07;;;;;;;6.00;5.40;;;13.20;99.90;;;;;;5061477;28;20552;-75
2023/03/14 01:57:38;;;;;;;2.50;1.42;;;13.20;99.90;;;;;;5059701;28;20556;-75
2023/03/14 02:00:12;;;;;;;2.38;2.17;;;13.20;99.90;;;;;;5059201;28;20259;-75
2023/03/14 02:02:41;;;;;;;12.20;10.27;;;13.30;99.90;;;;;;5061390;28;20564;-77
2023/03/14 02:05:11;;;;;;;1.50;1.40;;;13.20;99.90;;;;;;5057209;28;20220;-75
2023/03/14 02:07:47;;;;;;;2.20;1.37;;;13.20;99.90;;;;;;5059812;28;20502;-75
2023/03/14 02:10:15;;;;;;;2.05;1.50;;;13.20;99.90;;;;;;5056439;28;20828;-74
2023/03/14 02:12:42;;;;;;;3.05;1.58;;;13.20;99.90;;;;;;5060299;28;20220;-77
2023/03/14 02:15:11;;;;;;;1.63;1.53;;;13.20;99.90;;;;;;5057754;28;20615;-77
2023/03/14 02:17:39;;;;;;;3.15;2.00;;;13.20;99.90;;;;;;5059592;28;20446;-78
2023/03/14 02:20:29;;;;;;;1.30;1.20;;;13.20;99.90;;;;;;5061252;28;20750;-77
2023/03/14 02:22:56;;;;;;;3.33;1.95;;;13.20;99.90;;;;;;5060592;28;20229;-78
2023/03/14 02:25:32;;;;;;;1.50;1.40;;;13.10;99.90;;;;;;5060584;28;20688;-78
2023/03/14 02:28:02;;;;;;;1.40;1.15;;;13.20;99.90;;;;;;5052698;28;20532;-77
2023/03/14 02:30:30;;;;;;;2.38;1.60;;;13.10;99.90;;;;;;5052633;28;20642;-78
2023/03/14 02:33:01;;;;;;;1.63;1.50;;;13.10;99.90;;;;;;5054531;28;20220;-78
2023/03/14 02:35:32;;;;;;;1.25;1.15;;;13.10;99.90;;;;;;5053916;28;20224;-78
2023/03/14 02:38:05;;;;;;;1.50;1.40;;;13.10;99.90;;;;;;5053037;28;20232;-77
2023/03/14 02:40:32;;;;;;;1.23;1.13;;;13.00;99.90;;;;;;5054185;28;20232;-77
2023/03/14 02:43:01;;;;;;;5.93;3.10;;;13.00;99.90;;;;;;5055101;28;20225;-78
2023/03/14 02:45:37;;;;;;;1.97;1.70;;;13.10;99.90;;;;;;5054090;28;20297;-74
2023/03/14 02:48:10;;;;;;;1.27;1.08;;;13.10;99.90;;;;;;5054300;28;20474;-75
2023/03/14 02:50:37;;;;;;;1.20;1.10;;;13.10;99.90;;;;;;5054703;28;20220;-75
2023/03/14 02:53:04;;;;;;;2.13;1.73;;;13.10;99.90;;;;;;5057462;28;20247;-75
2023/03/14 02:55:31;;;;;;;1.93;1.43;;;13.10;99.90;;;;;;5059660;28;20225;-78
2023/03/14 02:57:58;;;;;;;1.87;1.73;;;13.10;99.90;;;;;;5066533;28;20467;-76
2023/03/14 03:00:27;;;;;;;1.20;1.10;;;13.10;99.90;;;;;;5057027;28;20526;-77
2023/03/14 03:02:54;;;;;;;1.85;1.08;;;13.10;99.90;;;;;;5091892;28;20220;-78
2023/03/14 03:05:21;;;;;;;1.50;1.20;;;13.10;99.90;;;;;;5091046;28;20223;-77
2023/03/14 03:07:48;;;;;;;1.53;1.43;;;13.20;99.90;;;;;;5077531;28;20248;-77
2023/03/14 03:10:15;;;;;;;2.90;1.70;;;13.20;99.90;;;;;;5075793;28;21029;-77
2023/03/14 03:12:43;;;;;;;1.23;1.13;;;13.20;99.90;;;;;;5074778;28;20228;-77
2023/03/14 03:15:11;;;;;;;1.63;1.02;;;13.20;99.90;;;;;;5074648;28;20258;-77
2023/03/14 03:17:39;;;;;;;1.33;1.03;;;13.20;99.90;;;;;;5073642;28;20791;-75
2023/03/14 03:20:09;;;;;;;1.13;1.02;;;13.10;99.90;;;;;;5077682;28;20564;-77
2023/03/14 03:22:36;;;;;;;2.40;1.40;;;13.10;99.90;;;;;;5075314;28;20231;-77
2023/03/14 03:25:03;;;;;;;2.00;1.67;;;13.10;99.90;;;;;;5074520;28;20481;-75
2023/03/14 03:27:32;;;;;;;1.45;1.35;;;13.10;99.90;;;;;;5073656;28;20224;-77
2023/03/14 03:29:59;;;;;;;2.42;1.83;;;13.00;99.90;;;;;;5074156;28;20235;-77
2023/03/14 03:32:26;;;;;;;1.10;1.00;;;13.10;99.90;;;;;;5073549;28;20248;-77
2023/03/14 03:34:55;;;;;;;1.40;1.27;;;13.00;99.90;;;;;;5073699;28;20289;-77
2023/03/14 03:37:22;;;;;;;1.77;1.20;;;13.00;99.90;;;;;;5076193;28;20216;-77
2023/03/14 03:39:51;;;;;;;2.10;1.92;;;13.00;99.90;;;;;;5068927;28;20216;-77
2023/03/14 03:42:19;;;;;;;1.90;1.30;;;13.00;99.90;;;;;;5076028;28;20231;-77
2023/03/14 03:44:47;;;;;;;4.22;3.13;;;13.00;99.90;;;;;;5073851;28;20595;-77
2023/03/14 03:47:14;;;;;;;2.92;2.63;;;12.90;99.90;;;;;;5074988;28;20220;-77
2023/03/14 03:49:41;;;;;;;2.45;1.75;;;12.90;99.90;;;;;;5072651;28;20220;-75
2023/03/14 03:52:10;;;;;;;4.43;1.40;;;12.90;99.90;;;;;;5073671;28;20223;-77
2023/03/14 03:54:37;;;;;;;15.50;10.10;;;12.90;99.90;;;;;;5063604;28;20244;-77
2023/03/14 03:57:04;;;;;;;1.50;1.20;;;12.90;99.90;;;;;;5053463;28;20298;-77
2023/03/14 03:59:31;;;;;;;4.20;2.50;;;12.90;99.90;;;;;;5051651;28;20471;-75
2023/03/14 04:01:58;;;;;;;3.25;2.80;;;12.90;99.90;;;;;;5062785;28;20251;-74
2023/03/14 04:04:25;;;;;;;4.00;1.50;;;12.90;99.90;;;;;;5073299;28;20277;-75
2023/03/14 04:06:52;;;;;;;1.40;1.30;;;12.90;99.90;;;;;;5072927;28;20328;-75
2023/03/14 04:09:20;;;;;;;2.22;1.83;;;12.90;99.90;;;;;;5072519;28;20236;-78
2023/03/14 04:11:48;;;;;;;1.63;1.52;;;12.80;99.90;;;;;;5072342;28;20273;-78
2023/03/14 04:14:15;;;;;;;1.13;1.02;;;12.80;99.90;;;;;;5071824;28;20227;-77
2023/03/14 04:16:42;;;;;;;2.13;1.40;;;12.80;99.90;;;;;;5071331;28;20685;-75
2023/03/14 04:19:09;;;;;;;1.60;1.30;;;12.80;99.90;;;;;;5073103;28;20223;-74
2023/03/14 04:21:36;;;;;;;1.23;1.13;;;12.80;99.90;;;;;;5072345;28;20250;-76
2023/03/14 04:24:03;;;;;;;2.30;2.00;;;12.80;99.90;;;;;;5072791;28;20235;-74
2023/03/14 04:26:32;;;;;;;1.73;1.50;;;12.80;99.90;;;;;;5072132;28;20228;-75
2023/03/14 04:28:59;;;;;;;1.95;1.75;;;12.80;99.90;;;;;;5072321;28;20243;-76
2023/03/14 04:31:26;;;;;;;2.53;2.00;;;12.80;99.90;;;;;;5072843;28;20223;-75
2023/03/14 04:33:53;;;;;;;2.00;1.52;;;12.80;99.90;;;;;;5071672;28;20216;-77
2023/03/14 04:36:21;;;;;;;1.30;1.00;;;12.80;99.90;;;;;;5053850;28;20212;-75
2023/03/14 04:38:48;;;;;;;2.30;1.52;;;12.80;99.90;;;;;;5052300;28;20247;-77
2023/03/14 04:41:15;;;;;;;2.50;2.20;;;12.80;99.90;;;;;;5052610;28;20220;-75
2023/03/14 04:43:43;;;;;;;3.83;1.30;;;12.80;99.90;;;;;;5051936;28;20224;-75
2023/03/14 04:46:10;;;;;;;1.45;1.35;;;12.80;99.90;;;;;;5052426;28;20224;-75
2023/03/14 04:48:38;;;;;;;1.50;1.10;;;12.70;99.90;;;;;;5052316;28;20277;-75
2023/03/14 04:51:05;;;;;;;1.30;1.10;;;12.80;99.90;;;;;;5052292;28;20619;-75
2023/03/14 04:53:33;;;;;;;2.30;2.03;;;12.80;99.90;;;;;;5052222;28;20271;-76
2023/03/14 04:56:00;;;;;;;1.55;1.42;;;12.70;99.90;;;;;;5052521;28;20220;-75
2023/03/14 04:58:27;;;;;;;4.80;2.33;;;12.80;99.90;;;;;;5052556;28;20301;-75
2023/03/14 05:00:56;;;;;;;3.72;3.05;;;12.70;99.90;;;;;;5057703;28;20219;-75
2023/03/14 05:03:23;;;;;;;1.90;1.70;;;12.80;99.90;;;;;;5072680;28;20244;-75
2023/03/14 05:05:50;;;;;;;3.58;2.53;;;12.70;99.90;;;;;;5072043;28;20277;-77
2023/03/14 05:08:17;;;;;;;4.57;2.13;;;12.70;99.90;;;;;;5072494;28;20238;-77
2023/03/14 05:10:44;;;;;;;2.92;2.22;;;12.70;99.90;;;;;;5071940;28;20654;-77
2023/03/14 05:13:11;;;;;;;2.67;1.65;;;12.70;99.90;;;;;;5072643;28;20224;-77
2023/03/14 05:15:38;;;;;;;5.82;1.30;;;12.70;99.90;;;;;;5072109;28;20224;-75
2023/03/14 05:18:06;;;;;;;2.13;1.60;;;12.70;99.90;;;;;;5072289;28;20311;-75
2023/03/14 05:20:33;;;;;;;2.75;1.35;;;12.70;99.90;;;;;;5072211;28;20227;-77
2023/03/14 05:23:00;;;;;;;1.45;1.20;;;12.70;99.90;;;;;;5071963;28;20220;-77
2023/03/14 05:25:27;;;;;;;4.57;1.42;;;12.70;99.90;;;;;;5072291;28;20684;-77
2023/03/14 05:27:55;;;;;;;3.17;1.60;;;12.70;99.90;;;;;;5071916;28;20307;-75
2023/03/14 05:30:22;;;;;;;1.40;1.30;;;12.70;99.90;;;;;;5072198;28;20251;-75
2023/03/14 05:32:49;;;;;;;3.45;3.00;;;12.70;99.90;;;;;;5071868;28;20224;-77
2023/03/14 05:35:18;;;;;;;2.97;1.00;;;12.80;99.90;;;;;;5062164;28;20290;-77
2023/03/14 05:37:45;;;;;;;1.55;1.45;;;12.80;99.90;;;;;;5051734;28;20256;-77
2023/03/14 05:40:12;;;;;;;1.27;1.17;;;12.80;99.90;;;;;;5052079;28;20278;-75
2023/03/14 05:42:39;;;;;;;2.03;1.48;;;12.70;99.90;;;;;;5057332;28;20220;-77
2023/03/14 05:45:09;;;;;;;5.03;3.25;;;12.70;99.90;;;;;;5051823;28;20252;-75
2023/03/14 05:47:36;;;;;;;1.80;1.40;;;12.80;99.90;;;;;;5051757;28;20290;-75
2023/03/14 05:50:04;;;;;;;3.80;2.00;;;12.80;99.90;;;;;;5051448;28;20228;-76
2023/03/14 05:52:32;;;;;;;2.25;1.05;;;12.70;99.90;;;;;;5052044;28;20231;-75
2023/03/14 05:54:59;;;;;;;1.35;1.17;;;12.70;99.90;;;;;;5051340;28;20582;-74
2023/03/14 05:57:29;;;;;;;3.00;2.70;;;12.80;99.90;;;;;;5051512;28;20248;-74
2023/03/14 05:59:56;;;;;;;2.42;1.85;;;12.80;99.90;;;;;;5051314;28;20801;-77
2023/03/14 06:02:23;;;;;;;1.85;1.50;;;12.80;99.90;;;;;;5071351;28;20242;-75
2023/03/14 06:04:50;;;;;;;1.40;1.30;;;12.80;99.90;;;;;;5075079;28;20235;-75
2023/03/14 06:07:26;;;;;;;2.00;1.90;;;12.80;99.90;;;;;;5075412;28;20466;-76
2023/03/14 06:09:54;;;;;;;3.75;2.72;;;12.90;99.90;;;;;;5074733;28;20234;-77
2023/03/14 06:12:21;;;;;;;12.38;6.90;;;12.90;99.90;;;;;;5057788;28;20221;-77
2023/03/14 06:14:48;;;;;;;1.95;1.50;;;12.90;99.90;;;;;;5054845;28;20338;-75
2023/03/14 06:17:15;;;;;;;2.45;2.03;;;12.90;99.90;;;;;;5054981;28;20279;-75
2023/03/14 06:19:44;;;;;;;1.98;1.48;;;12.80;99.90;;;;;;5055288;28;20225;-75
2023/03/14 06:22:11;;;;;;;4.45;3.45;;;12.80;99.90;;;;;;5054918;28;20217;-74
2023/03/14 06:24:38;;;;;;;4.47;1.90;;;12.80;99.90;;;;;;5055273;28;20229;-74
2023/03/14 06:27:07;;;;;;;7.47;6.47;;;12.80;99.90;;;;;;5055523;28;20228;-75
2023/03/14 06:29:34;;;;;;;2.20;1.33;;;12.80;99.90;;;;;;5055664;28;20260;-74
2023/03/14 06:32:01;;;;;;;3.10;1.67;;;12.80;99.90;;;;;;5055003;28;20227;-74
2023/03/14 06:34:29;;;;;;;1.20;1.10;;;12.80;99.90;;;;;;5055379;28;20290;-74
2023/03/14 06:36:56;;;;;;;1.63;1.20;;;12.80;99.90;;;;;;5052130;28;20224;-74
2023/03/14 06:39:23;;;;;;;1.30;1.20;;;12.80;99.90;;;;;;5061532;28;20229;-75
2023/03/14 06:41:50;;;;;;;1.70;1.30;;;12.80;99.90;;;;;;5055159;28;20220;-74
2023/03/14 06:44:19;;;;;;;3.10;1.30;;;12.90;99.90;;;;;;5054800;28;20600;-77
2023/03/14 06:46:46;;;;;;;4.68;3.10;;;12.90;99.90;;;;;;5055710;28;20237;-77
2023/03/14 06:49:15;;;;;;;3.30;2.22;;;12.90;99.90;;;;;;5054611;28;20228;-76
2023/03/14 06:51:42;;;;;;;3.42;2.05;;;12.90;99.90;;;;;;5055707;28;20578;-77
2023/03/14 06:54:09;;;;;;;1.65;1.45;;;12.90;99.90;;;;;;5054858;28;20659;-77
2023/03/14 06:56:36;;;;;;;2.15;1.83;;;12.90;99.90;;;;;;5055295;28;20562;-75
2023/03/14 06:59:03;;;;;;;2.83;1.63;;;12.90;99.90;;;;;;5054696;28;20331;-76
2023/03/14 07:01:32;;;;;;;2.95;1.25;;;12.90;99.90;;;;;;5065118;28;20291;-76
2023/03/14 07:03:59;;;;;;;4.07;3.10;;;13.00;99.90;;;;;;5074947;28;20612;-76
2023/03/14 07:06:26;;;;;;;3.65;1.92;;;13.00;99.90;;;;;;5076090;28;20224;-77
2023/03/14 07:08:53;;;;;;;2.63;1.20;;;13.00;99.90;;;;;;5076617;28;20319;-77
2023/03/14 07:11:20;;;;;;;2.58;1.27;;;13.10;99.90;;;;;;5067185;28;20290;-77
2023/03/14 07:13:47;;;;;;;3.42;2.45;;;13.10;99.90;;;;;;5053282;28;20286;-77
2023/03/14 07:16:14;;;;;;;3.30;1.60;;;13.10;99.90;;;;;;5053977;28;20248;-76
2023/03/14 07:18:42;;;;;;;2.15;1.95;;;13.10;99.90;;;;;;5054399;28;20469;-76
2023/03/14 07:21:10;;;;;;;3.75;2.20;;;13.20;99.90;;;;;;5053499;28;20243;-76
2023/03/14 07:23:37;;;;;;;2.77;1.40;;;13.20;99.90;;;;;;5054383;28;20250;-77
2023/03/14 07:26:04;;;;;;;5.57;3.30;;;13.20;99.90;;;;;;5053479;28;20479;-77
2023/03/14 07:28:33;;;;;;;5.20;2.88;;;13.20;99.90;;;;;;5053989;28;20252;-76
2023/03/14 07:31:00;;;;;;;8.10;3.85;;;13.20;99.90;;;;;;5056953;28;20247;-75
2023/03/14 07:33:26;;;;;;;4.13;3.22;;;13.20;99.90;;;;;;5057376;28;20236;-74
2023/03/14 07:35:55;;;;;;;5.00;3.67;;;13.20;99.90;;;;;;5054209;28;20298;-75
2023/03/14 07:38:22;;;;;;;6.22;5.47;;;13.20;99.90;;;;;;5053852;28;20240;-74
2023/03/14 07:40:49;;;;;;;2.97;2.28;;;13.30;99.90;;;;;;5054074;28;20682;-75
2023/03/14 07:43:16;;;;;;;4.30;3.30;;;13.20;99.90;;;;;;5053699;28;20374;-75
2023/03/14 07:45:46;;;;;;;12.05;5.97;;;13.30;99.90;;;;;;5053730;28;20229;-76
2023/03/14 07:48:13;;;;;;;5.13;4.63;;;13.20;99.90;;;;;;5052847;28;20670;-76
2023/03/14 07:50:40;;;;;;;6.50;2.80;;;13.30;99.90;;;;;;5053771;28;20236;-76
2023/03/14 07:53:09;;;;;;;3.28;2.00;;;13.30;99.90;;;;;;5052989;28;20463;-76
2023/03/14 07:55:36;;;;;;;3.33;1.80;;;13.30;99.90;;;;;;5053259;28;20256;-76
2023/03/14 07:58:02;;;;;;;2.75;1.92;;;13.30;99.90;;;;;;5052835;28;20537;-76
2023/03/14 08:00:32;;;;;;;3.05;2.00;;;13.40;99.90;;;;;;5054991;28;20255;-76
2023/03/14 08:02:59;;;;;;;6.25;2.03;;;13.40;99.90;;;;;;5072894;28;20220;-77
2023/03/14 08:05:27;;;;;;;3.03;2.10;;;13.40;99.90;;;;;;5072857;28;20305;-77
2023/03/14 08:07:54;;;;;;;3.70;1.88;;;13.50;99.90;;;;;;5072649;28;20294;-78
2023/03/14 08:10:24;;;;;;;2.97;1.70;;;13.50;99.90;;;;;;5069742;28;20319;-78
2023/03/14 08:12:56;;;;;;;7.00;1.60;;;13.60;99.90;;;;;;5073188;28;20223;-78
2023/03/14 08:15:23;;;;;;;3.05;1.40;;;13.60;99.90;;;;;;5072793;28;22494;-76
2023/03/14 08:17:51;;;;;;;10.00;3.25;;;13.60;99.90;;;;;;5072774;28;20236;-76
2023/03/14 08:20:18;;;;;;;4.67;3.50;;;13.60;99.90;;;;;;5072446;28;20648;-76
2023/03/14 08:22:47;;;;;;;4.77;3.80;;;13.70;99.90;;;;;;5073007;28;20490;-75
2023/03/14 08:25:16;;;;;;;3.28;2.05;;;13.70;99.90;;;;;;5072300;28;20466;-76
2023/03/14 08:27:45;;;;;;;5.80;1.80;;;13.80;99.90;;;;;;5072871;28;20247;-76
2023/03/14 08:30:13;;;;;;;5.60;3.43;;;13.80;99.90;;;;;;5072375;28;20504;-76
2023/03/14 08:32:40;;;;;;;7.67;4.00;;;13.80;99.90;;;;;;5072564;28;20567;-75
2023/03/14 08:35:09;;;;;;;4.20;3.57;;;13.90;99.90;;;;;;5072445;28;20470;-76
2023/03/14 08:37:41;;;;;;;5.67;4.60;;;13.90;99.90;;;;;;5064070;28;20474;-76
2023/03/14 08:40:11;;;;;;;6.10;1.80;;;14.00;99.90;;;;;;5072251;28;20466;-76
2023/03/14 08:42:41;;;;;;;4.78;3.38;;;14.00;99.90;;;;;;5072040;28;20531;-77
2023/03/14 08:45:13;;;;;;;6.47;3.63;;;14.00;99.90;;;;;;5072324;28;20235;-75
2023/03/14 08:47:39;;;;;;;4.00;2.63;;;14.00;99.90;;;;;;5072668;28;20552;-74
2023/03/14 08:50:11;;;;;;;4.77;2.60;;;14.00;99.90;;;;;;5055353;28;20545;-74
2023/03/14 08:52:40;;;;;;;3.53;3.22;;;14.00;99.90;;;;;;5052756;28;20577;-77
2023/03/14 08:55:08;;;;;;;4.47;3.17;;;14.00;99.90;;;;;;5052889;28;20438;-77
2023/03/14 08:57:36;;;;;;;2.60;2.40;;;14.10;99.90;;;;;;5052126;28;20513;-77
2023/03/14 09:00:09;;;;;;;8.40;2.17;;;14.10;99.90;;;;;;5053051;28;20968;-77
2023/03/14 09:02:38;;;;;;;4.50;1.30;;;14.10;99.90;;;;;;5071654;28;20458;-77
2023/03/14 09:05:06;;;;;;;4.67;3.50;;;14.00;99.90;;;;;;5072988;28;20482;-76
2023/03/14 09:07:34;;;;;;;8.23;2.50;;;14.00;99.90;;;;;;5072693;28;20537;-76
2023/03/14 09:10:04;;;;;;;4.60;2.77;;;14.00;99.90;;;;;;5072895;28;20462;-77
2023/03/14 09:12:31;;;;;;;2.87;2.03;;;14.00;99.90;;;;;;5072091;28;20944;-74
2023/03/14 09:14:58;;;;;;;10.53;2.00;;;14.10;99.90;;;;;;5072625;28;20472;-75
2023/03/14 09:17:25;;;;;;;8.70;2.10;;;14.10;99.90;;;;;;5071668;28;20963;-75
2023/03/14 09:19:54;;;;;;;4.87;1.63;;;14.10;99.90;;;;;;5072245;28;20550;-76
2023/03/14 09:22:21;;;;;;;2.73;2.20;;;14.10;99.90;;;;;;5071837;28;20489;-76
2023/03/14 09:24:49;;;;;;;2.33;1.70;;;14.10;99.90;;;;;;5072539;28;20804;-76
2023/03/14 09:27:16;;;;;;;2.37;1.70;;;14.20;99.90;;;;;;5054094;28;20565;-76
2023/03/14 09:29:43;;;;;;;4.63;2.27;;;14.20;99.90;;;;;;5051995;28;20463;-77
2023/03/14 09:32:10;;;;;;;4.57;2.50;;;14.30;99.90;;;;;;5053331;28;20479;-74
2023/03/14 09:34:37;;;;;;;2.37;1.83;;;14.30;99.90;;;;;;5054295;28;20613;-76
2023/03/14 09:37:05;;;;;;;4.60;1.97;;;14.40;99.90;;;;;;5064958;28;20482;-74
2023/03/14 09:39:32;;;;;;;4.07;2.77;;;14.50;99.90;;;;;;5073175;28;20477;-77
2023/03/14 09:42:05;;;;;;;4.93;3.87;;;14.50;99.90;;;;;;5065619;28;20980;-75
2023/03/14 09:44:35;;;;;;;4.13;2.70;;;14.60;99.90;;;;;;5066776;28;20574;-74
2023/03/14 09:47:06;;;;;;;7.53;3.30;;;14.70;99.90;;;;;;5062133;28;20475;-74
2023/03/14 09:49:37;;;;;;;4.63;3.33;;;14.80;99.90;;;;;;5056122;28;20533;-76
2023/03/14 09:52:14;;;;;;;11.17;4.90;;;14.80;99.90;;;;;;5056511;28;20917;-77
2023/03/14 09:54:45;;;;;;;2.83;2.40;;;14.90;99.90;;;;;;5056231;28;20855;-78
2023/03/14 09:57:21;;;;;;;4.60;2.47;;;14.90;99.90;;;;;;5056435;28;20473;-76
2023/03/14 09:59:50;;;;;;;2.90;2.60;;;14.90;99.90;;;;;;5055248;28;20493;-76
2023/03/14 10:02:20;;;;;;;3.90;2.13;;;14.90;99.90;;;;;;5071946;28;20979;-76
2023/03/14 10:04:50;;;;;;;1.93;1.60;;;14.90;99.90;;;;;;5075916;28;20515;-77
2023/03/14 10:07:29;;;;;;;1.87;1.27;;;15.00;99.90;;;;;;5074854;28;20847;-75
2023/03/14 10:09:56;;;;;;;5.07;1.90;;;15.00;99.90;;;;;;5075161;28;20470;-74
2023/03/14 10:12:38;;;;;;;2.50;1.30;;;14.90;99.90;;;;;;5075398;28;20524;-74
2023/03/14 10:15:08;;;;;;;3.93;1.97;;;14.90;99.90;;;;;;5074840;28;20540;-74
2023/03/14 10:17:40;;;;;;;4.30;2.43;;;14.90;99.90;;;;;;5075294;28;20673;-75
2023/03/14 10:20:27;;;;;;;6.20;2.77;;;14.80;99.90;;;;;;5075051;28;20462;-75
2023/03/14 10:22:56;;;;;;;6.03;2.67;;;14.80;99.90;;;;;;5074551;28;20560;-74
2023/03/14 10:25:28;;;;;;;3.40;1.77;;;14.80;99.90;;;;;;5071985;28;20491;-75
2023/03/14 10:27:57;;;;;;;2.60;1.97;;;14.80;99.90;;;;;;5054781;28;20475;-74
2023/03/14 10:30:45;;;;;;;3.07;2.77;;;14.90;99.90;;;;;;5055137;28;20471;-75
2023/03/14 10:33:20;;;;;;;5.73;2.47;;;14.90;99.90;;;;;;5043119;28;20466;-75
2023/03/14 10:35:53;;;;;;;3.50;2.70;;;14.90;99.90;;;;;;5054988;28;20467;-75
2023/03/14 10:38:25;;;;;;;2.90;1.83;;;15.00;99.90;;;;;;5054751;28;20475;-76
2023/03/14 10:40:54;;;;;;;4.20;1.70;;;15.00;99.90;;;;;;5055438;28;20783;-76
2023/03/14 10:43:30;;;;;;;2.50;1.50;;;14.90;99.90;;;;;;5053745;28;20470;-76
2023/03/14 10:45:58;;;;;;;3.00;1.50;;;14.90;99.90;;;;;;5054256;28;20835;-75
2023/03/14 10:48:32;;;;;;;5.90;2.63;;;14.90;99.90;;;;;;5054144;28;20467;-74
2023/03/14 10:51:05;;;;;;;4.67;2.67;;;14.90;99.90;;;;;;5054634;28;20466;-74
2023/03/14 10:53:41;;;;;;;1.67;1.57;;;14.90;99.90;;;;;;5054238;28;20458;-74
2023/03/14 10:56:12;;;;;;;2.47;1.20;;;14.90;99.90;;;;;;5054025;28;20470;-75
2023/03/14 10:58:42;;;;;;;3.87;1.47;;;14.80;99.90;;;;;;5054602;28;20470;-74
2023/03/14 11:01:30;;;;;;;4.90;1.20;;;14.80;99.90;;;;;;5060558;28;20467;-76
2023/03/14 11:04:02;;;;;;;3.93;1.07;;;14.80;99.90;;;;;;5059500;28;20800;-77
2023/03/14 11:06:37;;;;;;;6.40;2.07;;;14.80;99.90;;;;;;5053977;28;20463;-76
2023/03/14 11:09:12;;;;;;;2.10;1.47;;;14.80;99.90;;;;;;5053730;28;20532;-75
2023/03/14 11:11:41;;;;;;;6.33;3.20;;;14.80;99.90;;;;;;5053968;28;20463;-75
2023/03/14 11:14:17;;;;;;;6.93;3.63;;;14.90;99.90;;;;;;5054307;28;20789;-75
2023/03/14 11:16:54;;;;;;;8.80;5.57;;;14.90;99.90;;;;;;5054133;28;20459;-78
2023/03/14 11:19:40;;;;;;;7.50;5.40;;;14.80;99.90;;;;;;5053466;28;20548;-76
2023/03/14 11:22:18;;;;;;;5.23;4.07;;;14.90;99.90;;;;;;5053688;28;20455;-76
2023/03/14 11:25:07;;;;;;;5.10;4.60;;;14.80;99.90;;;;;;5053554;28;20451;-76
2023/03/14 11:27:42;;;;;;;2.93;1.63;;;14.90;99.90;;;;;;5053265;28;20498;-76
2023/03/14 11:30:18;;;;;;;1.30;1.07;;;14.90;99.90;;;;;;5053842;28;20569;-78
2023/03/14 11:32:47;;;;;;;2.90;1.57;;;14.80;99.90;;;;;;5053672;28;20455;-74
2023/03/14 11:35:21;;;;;;;2.40;1.33;;;14.90;99.90;;;;;;5054182;28;20471;-75
2023/03/14 11:37:52;;;;;;;1.50;1.20;;;14.90;99.90;;;;;;5053563;28;20524;-76
2023/03/14 11:40:24;;;;;;;3.27;1.77;;;14.90;99.90;;;;;;5054034;28;20489;-77
2023/03/14 11:43:02;;;;;;;2.07;1.10;;;14.90;99.90;;;;;;5053876;28;20987;-76
2023/03/14 11:45:35;;;;;;;1.80;1.37;;;14.80;99.90;;;;;;5053639;28;20489;-76
2023/03/14 11:48:20;;;;;;;7.10;1.60;;;14.80;99.90;;;;;;5053868;28;20861;-77
2023/03/14 11:50:50;;;;;;;2.10;1.87;;;14.70;99.90;;;;;;5053992;28;20763;-77
2023/03/14 11:53:23;;;;;;;3.60;1.93;;;14.80;99.90;;;;;;5053733;28;20479;-76
2023/03/14 11:55:53;;;;;;;5.13;3.77;;;14.70;99.90;;;;;;5054341;28;20470;-76
2023/03/14 11:58:24;;;;;;;4.83;1.87;;;14.70;99.90;;;;;;5055376;28;20796;-76
2023/03/14 12:00:54;;;;;;;1.10;1.00;;;14.70;99.90;;;;;;5059060;28;20478;-76
2023/03/14 12:03:29;;;;;;;1.97;1.30;;;14.70;99.90;;;;;;5072312;28;20802;-75
2023/03/14 12:06:06;;;;;;;2.30;1.00;;;14.80;99.90;;;;;;5056618;28;20550;-76
2023/03/14 12:08:44;;;;;;;5.60;3.37;;;14.80;99.90;;;;;;5065749;28;20487;-77
2023/03/14 12:11:19;;;;;;;5.67;4.00;;;14.90;99.90;;;;;;5070368;28;20474;-77
2023/03/14 12:13:50;;;;;;;1.47;1.13;;;15.00;99.90;;;;;;5055230;28;20509;-75
2023/03/14 12:16:36;;;;;;;3.00;1.80;;;14.90;99.90;;;;;;5054665;28;20471;-74
2023/03/14 12:19:38;;;;;;;1.50;1.30;;;14.90;99.90;;;;;;5052976;28;20572;-75
2023/03/14 12:22:28;;;;;;;2.03;1.20;;;15.00;99.90;;;;;;5052475;28;20454;-77
2023/03/14 12:25:01;;;;;;;4.70;1.50;;;14.90;99.90;;;;;;5052691;28;20463;-76
2023/03/14 12:27:47;;;;;;;2.07;1.47;;;14.90;99.90;;;;;;5052513;28;20466;-76
2023/03/14 12:30:29;;;;;;;1.90;1.20;;;14.90;99.90;;;;;;5052111;28;20459;-76
2023/03/14 12:33:22;;;;;;;3.17;1.73;;;14.90;99.90;;;;;;5052452;28;21022;-75
2023/03/14 12:35:50;;;;;;;5.07;3.00;;;14.90;99.90;;;;;;5052413;28;20463;-75
2023/03/14 12:38:24;;;;;;;4.40;3.67;;;15.00;99.90;;;;;;5052923;28;20863;-75
2023/03/14 12:41:00;;;;;;;2.27;1.70;;;15.00;99.90;;;;;;5056423;28;20460;-75
2023/03/14 12:43:31;;;;;;;1.50;1.37;;;15.10;99.90;;;;;;5052360;28;20470;-75
2023/03/14 12:46:25;;;;;;;2.50;1.00;;;15.10;99.90;;;;;;5052652;28;20857;-74
2023/03/14 12:48:57;;;;;;;1.70;1.60;;;15.20;99.90;;;;;;5052506;28;20482;-74
2023/03/14 12:51:34;;;;;;;2.20;1.70;;;15.20;99.90;;;;;;5052678;28;20529;-75
2023/03/14 12:54:24;;;;;;;1.70;0.93;;;15.20;99.90;;;;;;5051661;28;20948;-74
2023/03/14 12:57:26;;;;;;;2.13;1.40;;;15.10;99.90;;;;;;5051663;28;20748;-74
2023/03/14 12:59:58;;;;;;;3.33;2.07;;;15.10;99.90;;;;;;5050509;28;20470;-75